createdAt,value
2022-11-25T00:00:34.599Z,99087.97
2022-11-25T00:04:37.224Z,99081.09
2022-11-25T00:08:39.036Z,99081.00
2022-11-25T00:12:40.338Z,99077.59
2022-11-25T00:16:47.708Z,99081.91
2022-11-25T00:20:49.979Z,99078.50
2022-11-25T00:24:51.266Z,99079.41
2022-11-25T00:28:53.646Z,99084.53
2022-11-25T00:37:05.015Z,99073.34
2022-11-25T00:41:25.094Z,99068.25
2022-11-25T00:45:26.476Z,99054.56
2022-11-25T00:49:27.951Z,99052.00
2022-11-25T00:53:31.756Z,99061.41
2022-11-25T00:57:33.099Z,99051.97
2022-11-25T01:01:34.992Z,99046.84
2022-11-25T01:05:36.409Z,99049.44
2022-11-25T01:09:37.740Z,99046.09
2022-11-25T01:13:39.047Z,99051.31
2022-11-25T01:17:40.394Z,99053.06
2022-11-25T01:21:41.985Z,99046.28
2022-11-25T01:25:44.023Z,99051.50
2022-11-25T01:29:45.256Z,99063.56
2022-11-25T01:33:47.713Z,99060.16
2022-11-25T01:37:49.009Z,99054.97
2022-11-25T01:41:50.688Z,99053.28
2022-11-25T01:45:52.991Z,99061.00
2022-11-25T01:50:00.129Z,99059.31
2022-11-25T01:54:03.419Z,99061.13
2022-11-25T01:58:07.806Z,99051.81
2022-11-25T02:02:09.630Z,99045.88
2022-11-25T02:06:37.500Z,99040.84
2022-11-25T02:10:40.471Z,99042.56
2022-11-25T02:14:42.339Z,99033.22
2022-11-25T02:18:46.028Z,99029.00
2022-11-25T02:23:07.547Z,99026.50
2022-11-25T02:27:08.954Z,99018.00
2022-11-25T02:31:12.521Z,99031.00
2022-11-25T02:35:44.761Z,99021.59
2022-11-25T02:39:48.243Z,99025.94
2022-11-25T02:43:49.920Z,99014.78
2022-11-25T02:47:54.566Z,99009.72
2022-11-25T02:51:57.320Z,99012.31
2022-11-25T02:55:59.871Z,99007.19
2022-11-25T03:00:08.893Z,98996.91
2022-11-25T03:04:15.530Z,99000.34
2022-11-25T03:08:17.908Z,98998.59
2022-11-25T03:12:22.676Z,98992.63
2022-11-25T03:20:47.575Z,98997.16
2022-11-25T03:24:52.542Z,99002.34
2022-11-25T03:29:10.006Z,98993.78
2022-11-25T03:33:13.050Z,99000.66
2022-11-25T03:37:16.239Z,99009.25
2022-11-25T03:41:20.126Z,99006.69
2022-11-25T03:45:32.551Z,99016.09
2022-11-25T03:49:35.014Z,99028.16
2022-11-25T04:21:04.436Z,99020.56
2022-11-25T04:25:06.165Z,99014.56
2022-11-25T04:29:07.481Z,99022.31
2022-11-25T04:33:08.808Z,99034.41
2022-11-25T04:37:10.292Z,99038.75
2022-11-25T04:41:11.577Z,99036.19
2022-11-25T04:45:23.032Z,99054.25
2022-11-25T04:49:25.145Z,99063.81
2022-11-25T04:53:26.487Z,99060.38
2022-11-25T04:57:27.804Z,99065.56
2022-11-25T05:01:29.205Z,99063.00
2022-11-25T05:05:30.544Z,99081.94
2022-11-25T05:09:31.976Z,99079.38
2022-11-25T05:13:33.309Z,99083.66
2022-11-25T05:17:34.759Z,99093.13
2022-11-25T05:21:36.049Z,99102.59
2022-11-25T05:25:37.997Z,99104.31
2022-11-25T05:29:39.502Z,99107.78
2022-11-25T05:33:40.872Z,99100.06
2022-11-25T05:37:42.464Z,99110.38
2022-11-25T05:41:43.810Z,99112.97
2022-11-25T05:45:45.317Z,99113.84
2022-11-25T05:49:46.654Z,99119.03
2022-11-25T05:53:47.881Z,99116.47
2022-11-25T05:57:49.221Z,99119.94
2022-11-25T06:01:53.095Z,99117.34
2022-11-25T06:05:58.488Z,99127.69
2022-11-25T06:10:03.057Z,99127.69
2022-11-25T06:14:04.900Z,99127.69
2022-11-25T06:18:06.254Z,99138.03
2022-11-25T06:22:07.571Z,99150.94
2022-11-25T06:26:08.795Z,99161.31
2022-11-25T06:30:10.304Z,99152.72
2022-11-25T06:34:11.586Z,99156.16
2022-11-25T06:38:12.900Z,99166.50
2022-11-25T06:42:14.147Z,99173.41
2022-11-25T06:46:19.831Z,99178.56
2022-11-25T06:50:24.312Z,99182.91
2022-11-25T06:54:25.643Z,99189.84
2022-11-25T06:58:35.967Z,99191.56
2022-11-25T07:02:42.873Z,99195.88
2022-11-25T07:06:45.456Z,99194.16
2022-11-25T07:10:47.112Z,99200.16
2022-11-25T07:14:50.332Z,99201.03
2022-11-25T07:18:51.795Z,99207.06
2022-11-25T07:22:53.199Z,99207.94
2022-11-25T07:26:54.521Z,99213.09
2022-11-25T07:35:20.172Z,99224.38
2022-11-25T07:39:22.964Z,99234.72
2022-11-25T07:43:24.659Z,99235.66
2022-11-25T07:47:26.035Z,99241.72
2022-11-25T07:51:30.960Z,99241.72
2022-11-25T07:55:32.685Z,99246.97
2022-11-25T07:59:38.607Z,99258.16
2022-11-25T08:03:40.601Z,99264.22
2022-11-25T08:07:42.311Z,99267.72
2022-11-25T08:11:43.845Z,99278.94
2022-11-25T08:15:45.621Z,99275.56
2022-11-25T08:19:47.507Z,99277.31
2022-11-25T08:23:52.545Z,99283.38
2022-11-25T08:27:53.935Z,99283.41
2022-11-25T08:31:55.287Z,99299.81
2022-11-25T08:35:56.566Z,99299.00
2022-11-25T08:40:01.047Z,99300.78
2022-11-25T08:44:04.084Z,99312.91
2022-11-25T08:48:05.735Z,99308.56
2022-11-25T08:52:07.087Z,99306.88
2022-11-25T08:56:08.545Z,99312.09
2022-11-25T09:00:11.294Z,99317.25
2022-11-25T09:04:13.060Z,99318.97
2022-11-25T09:08:14.398Z,99324.16
2022-11-25T09:12:15.982Z,99331.94
2022-11-25T09:16:17.317Z,99341.44
2022-11-25T09:20:18.717Z,99340.56
2022-11-25T09:24:20.367Z,99344.88
2022-11-25T09:28:22.204Z,99356.13
2022-11-25T09:32:23.559Z,99357.84
2022-11-25T09:36:24.964Z,99364.75
2022-11-25T09:40:32.355Z,99376.84
2022-11-25T09:45:19.760Z,99374.25
2022-11-25T09:49:24.008Z,99375.94
2022-11-25T09:53:28.395Z,99385.41
2022-11-25T09:57:32.641Z,99387.13
2022-11-25T10:01:39.515Z,99391.38
2022-11-25T10:06:07.192Z,99392.19
2022-11-25T10:10:17.221Z,99391.31
2022-11-25T10:14:21.641Z,99401.69
2022-11-25T10:18:39.017Z,99419.00
2022-11-25T10:22:42.660Z,99408.66
2022-11-25T10:26:46.758Z,99418.22
2022-11-25T10:31:00.248Z,99428.59
2022-11-25T10:35:05.068Z,99430.34
2022-11-25T10:39:09.759Z,99424.28
2022-11-25T10:43:12.951Z,99428.63
2022-11-25T10:47:26.331Z,99432.06
2022-11-25T10:51:35.558Z,99431.19
2022-11-25T10:55:36.851Z,99432.94
2022-11-25T10:59:39.356Z,99433.78
2022-11-25T11:03:42.863Z,99451.09
2022-11-25T11:07:45.655Z,99443.31
2022-11-25T11:11:48.627Z,99451.09
2022-11-25T11:15:53.977Z,99452.81
2022-11-25T11:20:10.399Z,99450.16
2022-11-25T11:24:26.527Z,99456.22
2022-11-25T11:28:30.698Z,99458.78
2022-11-25T11:32:32.400Z,99461.44
2022-11-25T11:36:46.235Z,99474.41
2022-11-25T11:40:52.763Z,99476.13
2022-11-25T11:44:54.130Z,99477.00
2022-11-25T11:49:01.268Z,99486.50
2022-11-25T11:53:22.593Z,99493.44
2022-11-25T11:57:30.381Z,99483.06
2022-11-25T12:01:31.766Z,99485.63
2022-11-25T12:05:37.514Z,99492.50
2022-11-25T12:09:43.564Z,99500.31
2022-11-25T12:13:50.577Z,99503.75
2022-11-25T12:17:54.671Z,99503.78
2022-11-25T12:21:58.962Z,99508.09
2022-11-25T12:26:02.897Z,99510.69
2022-11-25T12:30:04.407Z,99517.66
2022-11-25T12:34:11.777Z,99515.03
2022-11-25T12:38:25.855Z,99516.78
2022-11-25T12:42:30.573Z,99527.16
2022-11-25T12:46:41.172Z,99528.88
2022-11-25T12:51:02.501Z,99536.66
2022-11-25T12:55:16.034Z,99544.44
2022-11-25T12:59:29.573Z,99559.16
2022-11-25T13:04:03.539Z,99559.19
2022-11-25T13:08:07.776Z,99554.88
2022-11-25T13:12:09.472Z,99566.13
2022-11-25T13:16:11.947Z,99572.19
2022-11-25T13:20:28.862Z,99579.09
2022-11-25T13:24:31.537Z,99587.75
2022-11-25T13:28:37.050Z,99591.22
2022-11-25T13:32:39.029Z,99603.31
2022-11-25T13:36:45.561Z,99611.09
2022-11-25T13:40:55.878Z,99614.53
2022-11-25T13:45:00.441Z,99618.00
2022-11-25T13:49:01.866Z,99618.03
2022-11-25T13:53:05.012Z,99617.16
2022-11-25T13:57:06.273Z,99618.91
2022-11-25T14:01:30.203Z,99619.78
2022-11-25T14:05:34.895Z,99621.50
2022-11-25T14:09:46.007Z,99632.75
2022-11-25T14:14:06.186Z,99634.53
2022-11-25T14:18:44.716Z,99648.34
2022-11-25T14:22:56.696Z,99656.16
2022-11-25T14:26:59.193Z,99661.31
2022-11-25T14:31:04.943Z,99666.53
2022-11-25T14:35:18.788Z,99676.03
2022-11-25T14:39:27.731Z,99678.56
2022-11-25T14:43:30.407Z,99688.97
2022-11-25T14:47:39.096Z,99690.72
2022-11-25T14:51:41.325Z,99690.69
2022-11-25T14:55:47.657Z,99693.28
2022-11-25T14:59:49.222Z,99697.59
2022-11-25T15:03:52.015Z,99697.56
2022-11-25T15:08:01.511Z,99691.50
2022-11-25T15:12:08.135Z,99702.75
2022-11-25T15:16:14.418Z,99696.63
2022-11-25T15:20:17.506Z,99705.25
2022-11-25T15:24:29.772Z,99712.09
2022-11-25T15:28:35.506Z,99723.25
2022-11-25T15:32:38.832Z,99731.81
2022-11-25T15:36:40.351Z,99736.88
2022-11-25T15:40:44.236Z,99739.34
2022-11-25T15:44:57.742Z,99747.03
2022-11-25T15:49:01.136Z,99752.94
2022-11-25T15:53:02.684Z,99757.97
2022-11-25T15:57:16.209Z,99753.53
2022-11-25T16:01:17.913Z,99766.44
2022-11-25T16:05:22.484Z,99772.41
2022-11-25T16:09:25.273Z,99780.97
2022-11-25T16:13:30.715Z,99768.81
2022-11-25T16:17:36.478Z,99779.03
2022-11-25T16:21:41.403Z,99786.59
2022-11-25T16:25:49.995Z,99793.34
2022-11-25T16:29:55.703Z,99798.28
2022-11-25T16:34:00.601Z,99816.31
2022-11-25T16:38:01.913Z,99814.44
2022-11-25T16:42:04.438Z,99822.09
2022-11-25T16:46:06.219Z,99830.63
2022-11-25T16:50:17.435Z,99835.63
2022-11-25T16:54:19.409Z,99851.78
2022-11-25T16:58:26.998Z,99855.03
2022-11-25T17:02:28.480Z,99857.44
2022-11-25T17:06:31.164Z,99854.53
2022-11-25T17:10:32.719Z,99869.84
2022-11-25T17:14:35.953Z,99871.38
2022-11-25T17:18:37.380Z,99875.63
2022-11-25T17:22:39.664Z,99888.56
2022-11-25T17:26:42.049Z,99887.59
2022-11-25T17:30:44.612Z,99901.16
2022-11-25T17:34:45.948Z,99907.03
2022-11-25T17:38:47.236Z,99908.50
2022-11-25T17:42:49.755Z,99913.53
2022-11-25T17:46:51.532Z,99916.84
2022-11-25T17:50:52.852Z,99922.66
2022-11-25T17:54:54.270Z,99930.22
2022-11-25T17:58:56.775Z,99936.03
2022-11-25T18:02:58.201Z,99941.03
2022-11-25T18:06:59.528Z,99946.81
2022-11-25T18:11:02.906Z,99961.16
2022-11-25T18:15:08.153Z,99971.25
2022-11-25T18:19:11.491Z,99980.53
2022-11-25T18:23:13.891Z,99988.19
2022-11-25T18:27:26.912Z,99992.66
2022-11-25T18:31:28.810Z,100000.38
2022-11-25T18:35:36.016Z,100008.13
2022-11-25T18:39:38.411Z,100015.25
2022-11-25T18:43:39.803Z,100019.81
2022-11-25T18:47:41.266Z,100032.78
2022-11-25T18:51:43.020Z,100032.97
2022-11-25T18:55:45.258Z,100044.25
2022-11-25T18:59:55.973Z,100057.25
2022-11-25T19:04:14.870Z,100049.66
2022-11-25T19:08:20.373Z,100058.22
2022-11-25T19:12:22.588Z,100063.56
2022-11-25T19:16:24.149Z,100072.28
2022-11-25T19:20:30.043Z,100070.63
2022-11-25T19:24:31.282Z,100081.00
2022-11-25T19:28:32.635Z,100096.47
2022-11-25T19:32:34.066Z,100101.56
2022-11-25T19:36:37.963Z,100111.81
2022-11-25T19:40:40.360Z,100113.50
2022-11-25T19:44:42.329Z,100117.66
2022-11-25T19:48:43.594Z,100123.63
2022-11-25T19:52:44.916Z,100128.03
2022-11-25T19:56:46.290Z,100122.91
2022-11-25T20:00:48.338Z,100135.03
2022-11-25T20:04:51.671Z,100138.63
2022-11-25T20:08:53.219Z,100143.09
2022-11-25T20:12:55.571Z,100144.00
2022-11-25T20:16:56.872Z,100155.25
2022-11-25T20:21:03.355Z,100165.44
2022-11-25T20:25:07.005Z,100162.88
2022-11-25T20:29:16.330Z,100169.84
2022-11-25T20:33:23.808Z,100174.06
2022-11-25T20:37:27.842Z,100168.88
2022-11-25T20:41:30.198Z,100177.22
2022-11-25T20:45:31.532Z,100181.38
2022-11-25T20:49:34.081Z,100182.16
2022-11-25T20:53:35.403Z,100185.53
2022-11-25T20:57:36.723Z,100181.75
2022-11-25T21:01:38.857Z,100189.22
2022-11-25T21:05:43.129Z,100188.88
2022-11-25T21:09:45.626Z,100191.88
2022-11-25T21:13:48.053Z,100195.03
2022-11-25T21:17:50.466Z,100205.13
2022-11-25T21:21:52.022Z,100206.53
2022-11-25T21:25:54.607Z,100206.38
2022-11-25T21:29:56.653Z,100219.06
2022-11-25T21:33:58.957Z,100217.94
2022-11-25T21:38:20.845Z,100226.19
2022-11-25T21:42:23.943Z,100227.78
2022-11-25T21:46:26.027Z,100224.19
2022-11-25T21:50:29.701Z,100235.97
2022-11-25T21:54:31.334Z,100247.09
2022-11-25T21:58:32.715Z,100252.81
2022-11-25T22:02:34.725Z,100264.69
2022-11-25T22:06:39.554Z,100262.78
2022-11-25T22:10:46.370Z,100274.34
2022-11-25T22:14:50.593Z,100272.41
2022-11-25T22:18:52.397Z,100268.59
2022-11-25T22:22:54.117Z,100281.28
2022-11-25T22:26:58.166Z,100276.97
2022-11-25T22:31:05.273Z,100280.91
2022-11-25T22:35:14.988Z,100290.13
2022-11-25T22:39:17.431Z,100295.19
2022-11-25T22:43:20.106Z,100294.25
2022-11-25T22:47:21.377Z,100295.84
2022-11-25T22:51:26.072Z,100299.81
2022-11-25T22:55:28.892Z,100298.72
2022-11-25T22:59:30.236Z,100309.66
2022-11-25T23:03:34.035Z,100318.03
2022-11-25T23:07:35.397Z,100324.59
2022-11-25T23:11:39.973Z,100330.38
2022-11-25T23:15:50.724Z,100329.59
2022-11-25T23:19:52.278Z,100342.19
2022-11-25T23:23:53.640Z,100341.97
2022-11-25T23:27:54.916Z,100346.28
2022-11-25T23:32:02.953Z,100348.69
2022-11-25T23:36:22.945Z,100350.88
2022-11-25T23:40:24.991Z,100355.78
2022-11-25T23:44:27.819Z,100357.41
2022-11-25T23:48:30.215Z,100365.69
2022-11-25T23:52:31.543Z,100366.28
2022-11-25T23:56:32.858Z,100379.56
